createdAt,value
2023-05-11T00:00:19.430Z,7.43
2023-05-11T00:02:48.943Z,7.20
2023-05-11T00:05:21.599Z,7.20
2023-05-11T00:07:50.793Z,6.53
2023-05-11T00:10:20.394Z,7.97
2023-05-11T00:12:49.715Z,8.27
2023-05-11T00:15:18.985Z,8.95
2023-05-11T00:17:48.296Z,9.07
2023-05-11T00:20:17.882Z,7.90
2023-05-11T00:22:49.601Z,7.75
2023-05-11T00:25:21.660Z,8.77
2023-05-11T00:27:50.962Z,9.70
2023-05-11T00:30:20.585Z,10.98
2023-05-11T00:32:52.458Z,11.32
2023-05-11T00:35:22.498Z,14.20
2023-05-11T00:37:51.852Z,16.25
2023-05-11T00:40:21.182Z,18.40
2023-05-11T00:42:50.470Z,18.83
2023-05-11T00:45:19.897Z,18.05
2023-05-11T00:47:49.328Z,17.13
2023-05-11T00:50:20.204Z,21.10
2023-05-11T00:52:50.221Z,19.05
2023-05-11T00:55:22.586Z,19.63
2023-05-11T00:57:52.067Z,22.23
2023-05-11T01:00:21.555Z,19.67
2023-05-11T01:02:51.377Z,19.08
2023-05-11T01:05:21.081Z,18.13
2023-05-11T01:08:06.797Z,15.45
2023-05-11T01:11:00.532Z,15.55
2023-05-11T01:13:29.737Z,15.32
2023-05-11T01:16:00.272Z,15.88
2023-05-11T01:18:45.184Z,17.42
2023-05-11T01:21:18.201Z,16.98
2023-05-11T01:23:56.444Z,19.67
2023-05-11T01:26:43.725Z,17.33
2023-05-11T01:29:41.414Z,15.77
2023-05-11T01:32:28.808Z,15.30
2023-05-11T01:35:20.216Z,15.95
2023-05-11T01:37:58.620Z,13.45
2023-05-11T01:43:27.469Z,13.60
2023-05-11T01:46:02.858Z,16.17
2023-05-11T01:48:38.907Z,15.98
2023-05-11T01:51:12.561Z,15.85
2023-05-11T01:53:46.391Z,13.88
2023-05-11T01:56:19.283Z,12.60
2023-05-11T01:58:51.206Z,13.00
2023-05-11T02:01:24.342Z,12.50
2023-05-11T02:03:56.566Z,12.10
2023-05-11T02:06:30.657Z,10.93
2023-05-11T02:09:03.426Z,10.77
2023-05-11T02:11:35.711Z,9.32
2023-05-11T02:14:07.371Z,8.60
2023-05-11T02:16:38.410Z,8.88
2023-05-11T02:19:09.771Z,7.47
2023-05-11T02:21:42.619Z,8.15
2023-05-11T02:24:12.889Z,7.20
2023-05-11T02:26:42.325Z,7.32
2023-05-11T02:29:11.686Z,6.90
2023-05-11T02:31:48.898Z,6.78
2023-05-11T02:34:34.259Z,7.15
2023-05-11T02:37:11.290Z,7.63
2023-05-11T02:39:46.326Z,6.82
2023-05-11T02:42:21.306Z,6.38
2023-05-11T02:47:59.825Z,6.22
2023-05-11T02:50:31.746Z,6.40
2023-05-11T02:53:08.764Z,6.03
2023-05-11T02:55:38.163Z,6.55
2023-05-11T02:58:07.976Z,6.40
2023-05-11T03:00:37.581Z,7.90
2023-05-11T03:03:07.214Z,7.28
2023-05-11T03:05:36.513Z,6.47
2023-05-11T03:08:06.484Z,6.20
2023-05-11T03:10:36.070Z,6.00
2023-05-11T03:13:08.136Z,5.70
2023-05-11T03:15:40.109Z,5.63
2023-05-11T03:18:11.247Z,7.57
2023-05-11T03:20:44.565Z,6.45
2023-05-11T03:23:16.537Z,5.68
2023-05-11T03:25:46.932Z,4.72
2023-05-11T03:28:18.844Z,4.80
2023-05-11T03:30:50.675Z,6.00
2023-05-11T03:33:21.871Z,4.50
2023-05-11T03:35:54.783Z,5.50
2023-05-11T03:38:29.697Z,5.07
2023-05-11T03:41:02.550Z,5.00
2023-05-11T03:43:36.029Z,4.75
2023-05-11T03:46:07.255Z,4.70
2023-05-11T03:48:37.036Z,4.10
2023-05-11T03:51:07.180Z,3.40
2023-05-11T03:53:36.715Z,3.22
2023-05-11T03:56:10.238Z,4.10
2023-05-11T03:58:43.416Z,4.07
2023-05-11T04:01:15.805Z,4.80
2023-05-11T04:03:53.732Z,3.72
2023-05-11T04:06:23.233Z,5.47
2023-05-11T04:08:52.508Z,4.03
2023-05-11T04:11:23.156Z,4.55
2023-05-11T04:13:55.320Z,4.45
2023-05-11T04:16:24.884Z,6.10
2023-05-11T04:18:54.117Z,5.22
2023-05-11T04:21:23.659Z,4.15
2023-05-11T04:23:52.837Z,5.75
2023-05-11T04:26:22.653Z,5.82
2023-05-11T04:28:51.936Z,5.70
2023-05-11T04:31:21.564Z,4.18
2023-05-11T04:33:50.981Z,19.23
2023-05-11T04:36:21.386Z,6.65
2023-05-11T04:38:52.301Z,5.32
2023-05-11T04:41:24.602Z,5.28
2023-05-11T04:43:54.099Z,4.90
2023-05-11T04:46:24.591Z,4.38
2023-05-11T04:48:53.969Z,5.53
2023-05-11T04:51:23.561Z,4.47
2023-05-11T04:53:56.118Z,4.90
2023-05-11T04:56:25.439Z,4.07
2023-05-11T04:58:54.714Z,3.85
2023-05-11T05:01:24.053Z,3.80
2023-05-11T05:03:53.393Z,4.13
2023-05-11T05:06:22.679Z,3.13
2023-05-11T05:08:51.983Z,3.97
2023-05-11T05:11:22.568Z,4.25
2023-05-11T05:13:51.986Z,3.83
2023-05-11T05:16:21.348Z,3.55
2023-05-11T05:18:50.760Z,3.05
2023-05-11T05:21:20.004Z,3.45
2023-05-11T05:23:49.277Z,3.90
2023-05-11T05:26:18.535Z,3.58
2023-05-11T05:28:47.789Z,3.17
2023-05-11T05:31:17.221Z,2.70
2023-05-11T05:33:46.544Z,3.85
2023-05-11T05:36:15.817Z,3.85
2023-05-11T05:38:45.137Z,3.88
2023-05-11T05:41:15.418Z,3.70
2023-05-11T05:43:44.583Z,3.13
2023-05-11T05:46:13.814Z,2.90
2023-05-11T05:48:43.125Z,3.00
2023-05-11T05:51:12.569Z,3.20
2023-05-11T05:53:41.896Z,2.25
2023-05-11T05:56:11.175Z,2.42
2023-05-11T05:58:40.466Z,2.03
2023-05-11T06:01:10.312Z,2.55
2023-05-11T06:03:41.055Z,3.70
2023-05-11T06:06:10.345Z,3.40
2023-05-11T06:08:39.745Z,2.97
2023-05-11T06:11:08.919Z,3.00
2023-05-11T06:13:38.155Z,4.18
2023-05-11T06:16:07.721Z,3.08
2023-05-11T06:18:37.290Z,2.50
2023-05-11T06:21:06.588Z,2.95
2023-05-11T06:23:35.706Z,2.25
2023-05-11T06:26:05.212Z,2.80
2023-05-11T06:28:34.449Z,2.92
2023-05-11T06:31:04.724Z,2.28
2023-05-11T06:33:33.994Z,2.50
2023-05-11T06:36:07.760Z,2.45
2023-05-11T06:38:37.487Z,2.58
2023-05-11T06:41:07.521Z,2.60
2023-05-11T06:43:36.634Z,3.30
2023-05-11T06:46:07.409Z,2.85
2023-05-11T06:48:36.493Z,3.00
2023-05-11T06:51:06.160Z,2.95
2023-05-11T06:53:35.253Z,2.40
2023-05-11T06:56:04.643Z,2.80
2023-05-11T06:58:33.763Z,5.22
2023-05-11T07:01:06.244Z,3.38
2023-05-11T07:03:36.683Z,2.80
2023-05-11T07:06:06.072Z,3.13
2023-05-11T07:08:35.278Z,3.15
2023-05-11T07:11:04.344Z,3.60
2023-05-11T07:13:33.599Z,2.97
2023-05-11T07:16:03.534Z,2.85
2023-05-11T07:18:32.790Z,3.28
2023-05-11T07:21:01.972Z,2.85
2023-05-11T07:23:31.041Z,3.38
2023-05-11T07:26:00.207Z,3.35
2023-05-11T07:28:29.275Z,3.00
2023-05-11T07:30:58.357Z,2.88
2023-05-11T07:33:27.555Z,3.30
2023-05-11T07:35:56.836Z,2.83
2023-05-11T07:38:26.238Z,2.70
2023-05-11T07:40:55.990Z,2.60
2023-05-11T07:43:25.213Z,2.63
2023-05-11T07:45:54.609Z,2.60
2023-05-11T07:48:24.127Z,2.05
2023-05-11T07:50:53.576Z,3.38
2023-05-11T07:53:22.749Z,4.50
2023-05-11T07:55:52.110Z,3.20
2023-05-11T07:58:21.219Z,2.55
2023-05-11T08:00:50.506Z,2.95
2023-05-11T08:03:19.677Z,2.55
2023-05-11T08:05:48.911Z,2.63
2023-05-11T08:08:18.195Z,2.47
2023-05-11T08:10:47.366Z,3.42
2023-05-11T08:13:17.297Z,3.05
2023-05-11T08:15:46.582Z,2.42
2023-05-11T08:18:16.110Z,2.40
2023-05-11T08:20:45.333Z,2.90
2023-05-11T08:23:19.067Z,3.55
2023-05-11T08:25:56.992Z,3.83
2023-05-11T08:28:26.164Z,2.70
2023-05-11T08:30:59.867Z,2.28
2023-05-11T08:36:01.423Z,2.70
2023-05-11T08:38:30.690Z,2.90
2023-05-11T08:41:02.742Z,3.08
2023-05-11T08:43:35.711Z,3.35
2023-05-11T08:46:10.535Z,3.13
2023-05-11T08:48:40.375Z,2.72
2023-05-11T08:51:11.172Z,2.38
2023-05-11T08:53:41.066Z,3.22
2023-05-11T08:56:11.746Z,2.65
2023-05-11T08:58:41.782Z,3.22
2023-05-11T09:01:13.342Z,2.90
2023-05-11T09:03:43.908Z,2.67
2023-05-11T09:06:13.684Z,2.80
2023-05-11T09:08:44.748Z,2.85
2023-05-11T09:11:14.446Z,4.20
2023-05-11T09:13:43.903Z,3.42
2023-05-11T09:16:27.895Z,3.10
2023-05-11T09:19:03.574Z,2.60
2023-05-11T09:21:33.550Z,2.90
2023-05-11T09:24:04.535Z,2.80
2023-05-11T09:26:37.414Z,3.53
2023-05-11T09:29:06.893Z,2.90
2023-05-11T09:31:40.627Z,2.92
2023-05-11T09:34:25.939Z,3.35
2023-05-11T09:37:00.979Z,3.00
2023-05-11T09:39:42.088Z,4.07
2023-05-11T09:42:24.172Z,3.13
2023-05-11T09:44:53.938Z,3.63
2023-05-11T09:47:26.481Z,3.00
2023-05-11T09:49:55.668Z,4.15
2023-05-11T09:52:25.129Z,3.40
2023-05-11T09:54:54.705Z,3.53
2023-05-11T09:57:32.510Z,3.38
2023-05-11T10:00:02.713Z,3.42
2023-05-11T10:02:34.502Z,2.70
2023-05-11T10:05:13.709Z,4.07
2023-05-11T10:07:43.078Z,3.28
2023-05-11T10:10:13.436Z,3.05
2023-05-11T10:12:42.744Z,3.08
2023-05-11T10:15:13.593Z,3.58
2023-05-11T10:17:47.556Z,3.30
2023-05-11T10:20:17.718Z,4.10
2023-05-11T10:22:48.375Z,3.10
2023-05-11T10:25:18.718Z,2.78
2023-05-11T10:27:48.949Z,2.63
2023-05-11T10:30:18.986Z,2.42
2023-05-11T10:32:48.425Z,2.97
2023-05-11T10:35:17.912Z,3.58
2023-05-11T10:37:48.544Z,3.58
2023-05-11T10:40:19.175Z,3.35
2023-05-11T10:43:12.262Z,3.40
2023-05-11T10:45:54.069Z,3.00
2023-05-11T10:48:50.096Z,3.60
2023-05-11T10:51:55.276Z,3.83
2023-05-11T10:54:40.805Z,3.45
2023-05-11T10:57:50.590Z,5.05
2023-05-11T11:01:03.544Z,5.13
2023-05-11T11:03:32.804Z,5.65
2023-05-11T11:06:02.244Z,4.43
2023-05-11T11:08:58.857Z,4.47
2023-05-11T11:11:48.877Z,4.10
2023-05-11T11:14:20.138Z,3.97
2023-05-11T11:17:26.586Z,3.85
2023-05-11T11:19:56.629Z,3.97
2023-05-11T11:22:42.096Z,3.92
2023-05-11T11:25:16.230Z,4.35
2023-05-11T11:27:51.238Z,5.00
2023-05-11T11:30:29.843Z,4.45
2023-05-11T11:33:21.574Z,5.22
2023-05-11T11:35:50.722Z,4.57
2023-05-11T11:38:22.508Z,4.55
2023-05-11T11:40:53.612Z,4.53
2023-05-11T11:43:30.494Z,5.28
2023-05-11T11:46:00.844Z,5.53
2023-05-11T11:48:43.321Z,5.70
2023-05-11T11:51:15.673Z,6.15
2023-05-11T11:53:46.320Z,7.10
2023-05-11T11:56:18.124Z,8.25
2023-05-11T11:58:47.549Z,8.73
2023-05-11T12:01:28.375Z,11.18
2023-05-11T12:04:19.772Z,13.13
2023-05-11T12:07:00.713Z,13.10
2023-05-11T12:09:30.168Z,11.15
2023-05-11T12:12:01.403Z,9.48
2023-05-11T12:14:33.448Z,10.18
2023-05-11T12:17:16.516Z,16.45
2023-05-11T12:19:47.527Z,24.02
2023-05-11T12:22:24.072Z,22.60
2023-05-11T12:25:00.114Z,17.65
2023-05-11T12:27:29.735Z,14.73
2023-05-11T12:29:59.779Z,11.27
2023-05-11T12:32:33.371Z,11.05
2023-05-11T12:35:06.841Z,9.80
2023-05-11T12:37:37.179Z,10.20
2023-05-11T12:40:12.039Z,9.85
2023-05-11T12:42:50.486Z,10.43
2023-05-11T12:45:22.248Z,11.40
2023-05-11T12:47:54.319Z,10.32
2023-05-11T12:50:25.409Z,9.48
2023-05-11T12:52:54.703Z,10.32
2023-05-11T12:55:32.025Z,9.63
2023-05-11T12:58:19.758Z,11.60
2023-05-11T13:01:00.828Z,12.55
2023-05-11T13:03:33.553Z,13.25
2023-05-11T13:06:14.426Z,13.38
2023-05-11T13:08:49.728Z,13.90
2023-05-11T13:11:27.792Z,14.20
2023-05-11T13:13:58.695Z,15.63
2023-05-11T13:16:35.434Z,15.20
2023-05-11T13:19:12.203Z,13.15
2023-05-11T13:21:41.484Z,12.77
2023-05-11T13:24:22.162Z,13.60
2023-05-11T13:26:52.248Z,12.63
2023-05-11T13:29:21.838Z,13.05
2023-05-11T13:31:54.375Z,16.02
2023-05-11T13:34:23.827Z,15.45
2023-05-11T13:36:53.227Z,15.10
2023-05-11T13:39:23.225Z,14.85
2023-05-11T13:41:55.056Z,15.38
2023-05-11T13:44:24.988Z,14.38
2023-05-11T13:46:54.265Z,14.75
2023-05-11T13:49:23.766Z,12.38
2023-05-11T13:51:53.501Z,12.18
2023-05-11T13:54:22.838Z,10.93
2023-05-11T13:56:55.237Z,9.63
2023-05-11T13:59:24.342Z,9.63
2023-05-11T14:01:53.571Z,9.63
2023-05-11T14:04:22.774Z,9.68
2023-05-11T14:06:51.864Z,10.02
2023-05-11T14:09:27.508Z,11.18
2023-05-11T14:11:56.817Z,11.52
2023-05-11T14:14:27.810Z,11.77
2023-05-11T14:16:57.894Z,11.20
2023-05-11T14:19:30.212Z,13.00
2023-05-11T14:21:59.687Z,11.80
2023-05-11T14:24:31.592Z,12.63
2023-05-11T14:27:03.334Z,13.48
2023-05-11T14:29:32.648Z,12.50
2023-05-11T14:32:04.006Z,16.50
2023-05-11T14:34:33.162Z,18.08
2023-05-11T14:37:02.453Z,19.85
2023-05-11T14:39:31.582Z,19.65
2023-05-11T14:42:00.663Z,19.33
2023-05-11T14:44:35.145Z,18.70
2023-05-11T14:47:07.469Z,17.92
2023-05-11T14:49:36.641Z,16.88
2023-05-11T14:52:08.928Z,16.23
2023-05-11T14:54:38.202Z,15.82
2023-05-11T14:57:07.984Z,14.45
2023-05-11T14:59:51.207Z,13.10
2023-05-11T15:02:39.775Z,13.13
2023-05-11T15:05:10.141Z,11.95
2023-05-11T15:07:40.248Z,12.05
2023-05-11T15:10:10.337Z,10.90
2023-05-11T15:12:40.062Z,11.80
2023-05-11T15:15:10.983Z,10.57
2023-05-11T15:17:40.191Z,11.68
2023-05-11T15:20:11.708Z,11.40
2023-05-11T15:22:40.911Z,11.90
2023-05-11T15:25:10.654Z,11.20
2023-05-11T15:27:39.923Z,11.63
2023-05-11T15:30:09.813Z,10.90
2023-05-11T15:32:39.128Z,11.55
2023-05-11T15:35:08.804Z,10.88
2023-05-11T15:37:38.230Z,9.95
2023-05-11T15:40:09.602Z,10.25
2023-05-11T15:42:39.157Z,11.10
2023-05-11T15:45:09.656Z,10.43
2023-05-11T15:47:39.063Z,10.43
2023-05-11T15:50:10.363Z,11.50
2023-05-11T15:52:41.347Z,10.55
2023-05-11T15:55:11.313Z,10.70
2023-05-11T15:57:40.803Z,10.93
2023-05-11T16:00:11.629Z,10.50
2023-05-11T16:02:41.257Z,10.68
2023-05-11T16:05:11.098Z,11.75
2023-05-11T16:07:41.672Z,10.60
2023-05-11T16:10:11.829Z,11.20
2023-05-11T16:12:41.350Z,11.32
2023-05-11T16:15:11.407Z,11.18
2023-05-11T16:17:41.155Z,10.38
2023-05-11T16:20:11.291Z,10.15
2023-05-11T16:22:40.805Z,9.45
2023-05-11T16:25:10.728Z,10.18
2023-05-11T16:27:40.179Z,10.05
2023-05-11T16:30:22.294Z,9.75
2023-05-11T16:32:54.599Z,10.13
2023-05-11T16:35:24.216Z,9.95
2023-05-11T16:37:53.583Z,9.20
2023-05-11T16:40:24.124Z,9.75
2023-05-11T16:42:55.041Z,9.13
2023-05-11T16:45:24.509Z,9.65
2023-05-11T16:47:53.878Z,8.75
2023-05-11T16:50:23.461Z,8.38
2023-05-11T16:52:56.026Z,8.85
2023-05-11T16:55:25.512Z,8.35
2023-05-11T16:57:54.938Z,8.93
2023-05-11T17:00:24.425Z,9.00
2023-05-11T17:02:53.922Z,9.55
2023-05-11T17:05:24.394Z,9.52
2023-05-11T17:07:53.766Z,9.13
2023-05-11T17:10:23.251Z,9.38
2023-05-11T17:12:53.016Z,9.02
2023-05-11T17:15:22.315Z,9.15
2023-05-11T17:17:54.245Z,9.18
2023-05-11T17:20:23.710Z,10.23
2023-05-11T17:22:53.427Z,8.75
2023-05-11T17:25:22.665Z,9.10
2023-05-11T17:27:51.993Z,8.90
2023-05-11T17:30:22.332Z,8.75
2023-05-11T17:32:54.959Z,8.95
2023-05-11T17:35:24.392Z,8.57
2023-05-11T17:37:53.558Z,8.75
2023-05-11T17:40:23.447Z,8.75
2023-05-11T17:42:52.691Z,8.95
2023-05-11T17:45:22.005Z,8.98
2023-05-11T17:47:51.654Z,8.00
2023-05-11T17:50:21.298Z,8.82
2023-05-11T17:52:51.342Z,9.65
2023-05-11T17:55:20.926Z,9.10
2023-05-11T17:57:52.516Z,9.00
2023-05-11T18:00:22.776Z,8.60
2023-05-11T18:02:52.212Z,9.63
2023-05-11T18:05:33.458Z,8.18
2023-05-11T18:08:10.067Z,8.95
2023-05-11T18:10:39.273Z,9.27
2023-05-11T18:13:08.652Z,8.95
2023-05-11T18:15:38.719Z,9.40
2023-05-11T18:18:07.995Z,9.25
2023-05-11T18:20:40.234Z,9.20
2023-05-11T18:23:09.400Z,9.63
2023-05-11T18:25:38.554Z,8.70
2023-05-11T18:28:07.793Z,9.40
2023-05-11T18:30:37.165Z,9.40
2023-05-11T18:33:06.492Z,8.57
2023-05-11T18:35:35.771Z,8.93
2023-05-11T18:38:05.957Z,8.30
2023-05-11T18:40:35.877Z,9.20
2023-05-11T18:43:05.265Z,8.60
2023-05-11T18:45:35.825Z,9.18
2023-05-11T18:48:05.618Z,9.13
2023-05-11T18:50:34.962Z,9.40
2023-05-11T18:53:04.231Z,9.82
2023-05-11T18:55:41.271Z,8.90
2023-05-11T18:58:21.177Z,8.73
2023-05-11T19:00:52.330Z,8.77
2023-05-11T19:03:23.177Z,9.85
2023-05-11T19:05:53.184Z,9.02
2023-05-11T19:08:22.504Z,8.88
2023-05-11T19:10:51.752Z,9.98
2023-05-11T19:13:21.013Z,9.60
2023-05-11T19:15:50.912Z,9.82
2023-05-11T19:18:20.097Z,9.30
2023-05-11T19:20:49.291Z,10.60
2023-05-11T19:23:18.473Z,9.70
2023-05-11T19:25:47.777Z,9.93
2023-05-11T19:28:17.008Z,9.75
2023-05-11T19:30:46.179Z,10.88
2023-05-11T19:33:15.485Z,9.45
2023-05-11T19:35:45.402Z,10.13
2023-05-11T19:38:14.575Z,10.18
2023-05-11T19:40:46.515Z,10.75
2023-05-11T19:43:16.230Z,10.45
2023-05-11T19:45:46.262Z,10.55
2023-05-11T19:48:16.124Z,9.75
2023-05-11T19:50:45.288Z,10.00
2023-05-11T19:53:14.505Z,9.95
2023-05-11T19:55:44.470Z,9.93
2023-05-11T19:58:15.283Z,9.00
2023-05-11T20:00:44.434Z,9.75
2023-05-11T20:03:13.904Z,9.65
2023-05-11T20:05:43.331Z,10.85
2023-05-11T20:08:12.688Z,10.10
2023-05-11T20:10:41.826Z,9.77
2023-05-11T20:13:11.003Z,8.88
2023-05-11T20:15:40.428Z,10.00
2023-05-11T20:18:10.340Z,10.40
2023-05-11T20:20:39.468Z,9.88
2023-05-11T20:23:08.679Z,10.45
2023-05-11T20:25:41.039Z,9.35
2023-05-11T20:28:10.640Z,10.20
2023-05-11T20:30:39.786Z,11.65
2023-05-11T20:35:41.336Z,11.85
2023-05-11T20:38:10.491Z,10.02
2023-05-11T20:40:39.972Z,10.55
2023-05-11T20:43:09.447Z,9.93
2023-05-11T20:45:38.577Z,10.30
2023-05-11T20:48:07.763Z,10.48
2023-05-11T20:50:36.948Z,11.00
2023-05-11T20:53:06.286Z,11.07
2023-05-11T20:55:35.383Z,10.35
2023-05-11T20:58:05.917Z,10.88
2023-05-11T21:00:36.254Z,10.50
2023-05-11T21:03:05.773Z,9.95
2023-05-11T21:05:35.128Z,10.15
2023-05-11T21:08:04.835Z,10.80
2023-05-11T21:10:34.162Z,10.52
2023-05-11T21:13:03.466Z,10.57
2023-05-11T21:15:32.850Z,10.68
2023-05-11T21:18:03.067Z,10.48
2023-05-11T21:20:32.318Z,9.80
2023-05-11T21:23:01.594Z,9.57
2023-05-11T21:25:30.924Z,10.77
2023-05-11T21:28:01.861Z,10.35
2023-05-11T21:30:31.153Z,9.93
2023-05-11T21:33:00.470Z,10.95
2023-05-11T21:35:29.893Z,9.77
2023-05-11T21:37:59.179Z,10.95
2023-05-11T21:40:28.411Z,10.00
2023-05-11T21:42:57.672Z,10.77
2023-05-11T21:45:26.950Z,11.52
2023-05-11T21:47:56.195Z,10.70
2023-05-11T21:50:25.607Z,10.38
2023-05-11T21:52:54.841Z,10.05
2023-05-11T21:55:24.280Z,10.65
2023-05-11T21:57:53.694Z,9.70
2023-05-11T22:00:23.735Z,8.93
2023-05-11T22:02:53.299Z,10.05
2023-05-11T22:05:22.677Z,9.90
2023-05-11T22:07:53.982Z,9.60
2023-05-11T22:10:27.123Z,10.15
2023-05-11T22:12:56.353Z,10.05
2023-05-11T22:15:25.703Z,8.70
2023-05-11T22:17:54.870Z,9.68
2023-05-11T22:20:24.032Z,9.38
2023-05-11T22:22:53.226Z,8.05
2023-05-11T22:25:22.483Z,8.07
2023-05-11T22:27:51.691Z,8.75
2023-05-11T22:30:21.390Z,8.77
2023-05-11T22:32:50.763Z,7.95
2023-05-11T22:35:20.451Z,8.40
2023-05-11T22:37:50.233Z,8.57
2023-05-11T22:40:20.071Z,8.25
2023-05-11T22:42:49.341Z,8.38
2023-05-11T22:45:18.560Z,8.23
2023-05-11T22:47:48.189Z,9.57
2023-05-11T22:50:17.838Z,9.15
2023-05-11T22:52:48.250Z,9.23
2023-05-11T22:55:17.569Z,9.57
2023-05-11T22:57:46.774Z,10.13
2023-05-11T23:00:16.287Z,9.60
2023-05-11T23:02:45.542Z,9.35
2023-05-11T23:05:14.767Z,9.20
2023-05-11T23:07:44.433Z,9.95
2023-05-11T23:10:14.302Z,8.93
2023-05-11T23:12:43.735Z,9.90
2023-05-11T23:15:13.333Z,9.95
2023-05-11T23:17:42.654Z,8.27
2023-05-11T23:20:12.993Z,8.82
2023-05-11T23:22:42.654Z,8.07
2023-05-11T23:25:12.465Z,7.25
2023-05-11T23:27:41.737Z,7.50
2023-05-11T23:30:12.025Z,7.78
2023-05-11T23:32:41.239Z,8.38
2023-05-11T23:35:11.350Z,8.23
2023-05-11T23:37:40.652Z,7.35
2023-05-11T23:40:11.731Z,7.88
2023-05-11T23:42:58.076Z,7.72
2023-05-11T23:45:28.932Z,8.32
2023-05-11T23:47:58.161Z,8.18
2023-05-11T23:50:27.845Z,8.30
2023-05-11T23:52:57.028Z,7.80
2023-05-11T23:55:26.413Z,9.25
2023-05-11T23:57:56.406Z,9.63
